General Servando Canales International Airport
MMMA : now visible

Airfield :











YOU CAN JOIN US ON...

 
LOGIN :

Register | Disclaimer

   EN    FR    IT 

 









Legend :    VFR   Marginal VFR   IFR   Intensive IFR   Very Intensive IFR
Visi :
Ceiling :
>= 8 km
>= 3000ft
5 to 8 km
1000 to 3000 ft
1500m to 5 km
500 to 1000 ft
800 to 1500m
200 to 500 ft
< 800m
< 200 ft
Symbols :   Thunderstorms  Fog  Heavy snow  Heavy precipitations  Wind > 20 kt







- Airport Elevation : 25 ft
- IATA code : MAM


MMMA - General Servando Canales International

CURRENT METAR :
  • 202340Z 14017G28KT 7SM FEW015 30/25 A2966 RMK SLP046 56015 976 8/100 HZY BLDU

EXPIRED METARs :
  • 202240Z 13019G29KT 7SM FEW015 31/25 A2967 RMK 8/100 HZY BLDU
  • 202146Z 14024KT 7SM SKC 32/24 A2969 RMK HZY BLDU

TAF TAF MMMA
Valid from the 20 at 18:00 until the 21 at 18:00 UTC


201723Z 2018/2118 16020G30KT P6SM BLDU SCT020
TEMPO 2020/2024 4SM BLDU
BECMG 2102/2103 13010G20KT
FM211000 15015KT 3SM BR OVC010
FM211600 16020G30KT 4SM HZ SCT010 BKN050
MMFR FIR / North America



MET'MAP, your aeronautical weather chart ! - Copyright ORBIFLY December 2007 - Disclaimer

ORBIFLY MET'MAP TEAM :

Programming & Development : Alexandra Zaïnal
Concept & Development : Baudouin d'Aumeries
Co-Development & Prog : Marc-Olivier Méhu
Technical & hardware support : Manuel Goepfert

Contact : metmap@orbifly.com




SOURCES & CREDITS :

   NOAA       Earth
Advisory